Time;durP1;ratioP1;P1;durP2;ratioP2;P2;SDS_P1;SDS_P2;PMS_P1;PMS_P2;Temp;Humidity;BMP_temperature;BMP_pressure;BME280_temperature;BME280_humidity;BME280_pressure;Samples;Min_cycle;Max_cycle;Signal;HPM_P1;HPM_P2
2022/12/20 00:01:22;;;;;;;3.95;1.48;;;;;;;;;;5004553;28;92217;-65
2022/12/20 00:03:52;;;;;;;3.55;1.60;;;;;;;;;;5004268;28;92215;-65
2022/12/20 00:06:18;;;;;;;4.05;1.60;;;;;;;;;;5004377;28;93331;-64
2022/12/20 00:08:45;;;;;;;9.25;1.50;;;;;;;;;;5007351;28;92550;-65
2022/12/20 00:11:12;;;;;;;2.03;1.30;;;;;;;;;;5004023;28;92680;-65
2022/12/20 00:13:38;;;;;;;3.10;1.35;;;;;;;;;;5004326;28;92485;-65
2022/12/20 00:16:06;;;;;;;2.95;1.23;;;;;;;;;;5004517;28;92676;-65
2022/12/20 00:18:32;;;;;;;2.88;1.35;;;;;;;;;;5004243;28;93581;-65
2022/12/20 00:20:59;;;;;;;3.70;1.30;;;;;;;;;;5004261;28;92336;-65
2022/12/20 00:23:26;;;;;;;2.72;1.40;;;;;;;;;;5002462;28;94563;-66
2022/12/20 00:25:52;;;;;;;3.45;1.38;;;;;;;;;;5004072;28;92634;-64
2022/12/20 00:28:19;;;;;;;2.30;1.33;;;;;;;;;;5007424;28;92358;-65
2022/12/20 00:30:45;;;;;;;3.03;1.40;;;;;;;;;;5003515;28;92578;-65
2022/12/20 00:33:11;;;;;;;2.92;1.42;;;;;;;;;;5004279;28;92192;-63
2022/12/20 00:35:41;;;;;;;3.95;1.40;;;;;;;;;;5001493;28;92607;-64
2022/12/20 00:38:07;;;;;;;3.38;1.50;;;;;;;;;;5001967;28;93723;-62
2022/12/20 00:40:33;;;;;;;7.10;1.95;;;;;;;;;;5001278;28;91665;-65
2022/12/20 00:43:00;;;;;;;4.90;2.10;;;;;;;;;;5001936;28;93585;-65
2022/12/20 00:45:26;;;;;;;6.10;2.30;;;;;;;;;;5001735;28;92577;-66
2022/12/20 00:47:53;;;;;;;5.13;2.22;;;;;;;;;;5001158;28;94708;-65
2022/12/20 00:50:19;;;;;;;7.72;2.60;;;;;;;;;;5005260;28;95125;-65
2022/12/20 00:52:45;;;;;;;6.10;2.20;;;;;;;;;;5003709;28;91978;-65
2022/12/20 00:55:12;;;;;;;6.30;2.75;;;;;;;;;;5003778;28;92252;-65
2022/12/20 00:57:38;;;;;;;7.15;2.55;;;;;;;;;;5002672;28;92909;-65
2022/12/20 01:00:05;;;;;;;6.93;2.38;;;;;;;;;;4995240;28;92076;-65
2022/12/20 01:02:32;;;;;;;6.55;2.63;;;;;;;;;;5003753;28;93672;-65
2022/12/20 01:04:58;;;;;;;6.20;2.40;;;;;;;;;;5002113;28;93740;-65
2022/12/20 01:07:25;;;;;;;6.55;2.30;;;;;;;;;;5003698;28;92507;-66
2022/12/20 01:09:51;;;;;;;6.07;2.33;;;;;;;;;;5003771;28;92326;-65
2022/12/20 01:12:18;;;;;;;5.80;2.40;;;;;;;;;;5001442;28;95440;-65
2022/12/20 01:14:44;;;;;;;5.88;2.55;;;;;;;;;;4985314;28;95723;-65
2022/12/20 01:17:11;;;;;;;6.30;2.80;;;;;;;;;;5001853;28;94452;-65
2022/12/20 01:19:37;;;;;;;5.72;2.30;;;;;;;;;;5003714;28;92298;-65
2022/12/20 01:22:03;;;;;;;6.65;2.80;;;;;;;;;;5003449;28;92239;-65
2022/12/20 01:24:30;;;;;;;6.05;2.30;;;;;;;;;;5001839;28;94622;-65
2022/12/20 01:26:56;;;;;;;5.60;2.70;;;;;;;;;;5002878;28;91998;-65
2022/12/20 01:29:23;;;;;;;6.25;2.38;;;;;;;;;;5003661;28;91524;-66
2022/12/20 01:31:49;;;;;;;6.65;2.30;;;;;;;;;;5001867;28;93033;-65
2022/12/20 01:34:16;;;;;;;5.25;2.40;;;;;;;;;;5006440;28;92508;-65
2022/12/20 01:36:43;;;;;;;5.93;2.40;;;;;;;;;;5001318;28;95191;-65
2022/12/20 01:39:12;;;;;;;8.07;2.40;;;;;;;;;;5003142;28;92146;-65
2022/12/20 01:41:39;;;;;;;7.10;2.15;;;;;;;;;;5003034;28;92794;-65
2022/12/20 01:44:25;;;;;;;6.25;2.20;;;;;;;;;;5002976;28;92618;-65
2022/12/20 01:46:52;;;;;;;5.40;2.28;;;;;;;;;;5001219;28;92646;-66
2022/12/20 01:49:18;;;;;;;7.00;2.40;;;;;;;;;;5001239;28;92685;-65
2022/12/20 01:51:50;;;;;;;4.88;2.30;;;;;;;;;;5001285;28;94529;-65
2022/12/20 01:54:22;;;;;;;5.50;2.60;;;;;;;;;;5001613;28;91578;-65
2022/12/20 01:56:53;;;;;;;5.22;2.28;;;;;;;;;;4999187;28;93194;-65
2022/12/20 01:59:20;;;;;;;6.68;2.50;;;;;;;;;;5001236;28;92536;-65
2022/12/20 02:01:46;;;;;;;6.90;2.40;;;;;;;;;;5001488;28;94830;-65
2022/12/20 02:04:13;;;;;;;7.05;2.50;;;;;;;;;;5002433;28;92028;-65
2022/12/20 02:06:39;;;;;;;5.45;2.42;;;;;;;;;;5000875;28;92557;-65
2022/12/20 02:09:07;;;;;;;6.30;2.80;;;;;;;;;;5002614;28;92352;-66
2022/12/20 02:12:03;;;;;;;7.28;2.42;;;;;;;;;;5002347;28;92504;-65
2022/12/20 02:14:52;;;;;;;7.78;2.70;;;;;;;;;;4966485;28;92424;-66
2022/12/20 02:17:42;;;;;;;7.07;2.40;;;;;;;;;;5001043;28;92564;-65
2022/12/20 02:20:20;;;;;;;5.75;2.40;;;;;;;;;;5005955;28;92099;-65
2022/12/20 02:23:07;;;;;;;7.40;2.75;;;;;;;;;;5002742;28;92384;-64
2022/12/20 02:25:49;;;;;;;4.40;2.00;;;;;;;;;;4989871;28;92607;-65
2022/12/20 02:28:28;;;;;;;6.43;3.17;;;;;;;;;;4997116;28;94727;-66
2022/12/20 02:30:56;;;;;;;5.38;2.40;;;;;;;;;;5002139;28;94541;-65
2022/12/20 02:33:25;;;;;;;6.20;2.53;;;;;;;;;;5000716;28;94162;-65
2022/12/20 02:35:51;;;;;;;6.57;2.47;;;;;;;;;;5001131;28;92866;-65
2022/12/20 02:38:27;;;;;;;6.25;2.25;;;;;;;;;;4988991;28;92524;-65
2022/12/20 02:40:56;;;;;;;4.85;2.40;;;;;;;;;;5003843;28;94856;-65
2022/12/20 02:46:09;;;;;;;6.50;2.60;;;;;;;;;;5002160;28;91888;-65
2022/12/20 02:48:36;;;;;;;6.78;2.58;;;;;;;;;;5000861;28;92330;-66
2022/12/20 02:51:05;;;;;;;7.35;2.42;;;;;;;;;;5001617;28;92342;-65
2022/12/20 02:53:32;;;;;;;6.53;2.40;;;;;;;;;;5000264;28;95383;-65
2022/12/20 02:56:17;;;;;;;7.13;2.75;;;;;;;;;;5000644;28;92124;-66
2022/12/20 02:58:50;;;;;;;6.35;2.45;;;;;;;;;;5000681;28;94850;-65
2022/12/20 03:01:20;;;;;;;4.97;2.22;;;;;;;;;;4999979;28;94013;-65
2022/12/20 03:03:47;;;;;;;6.35;2.70;;;;;;;;;;5004048;28;92675;-65
2022/12/20 03:06:14;;;;;;;6.45;2.70;;;;;;;;;;5001537;28;92464;-65
2022/12/20 03:08:40;;;;;;;6.60;2.78;;;;;;;;;;5000446;28;92339;-66
2022/12/20 03:11:07;;;;;;;6.65;2.33;;;;;;;;;;5000859;28;92337;-66
2022/12/20 03:13:33;;;;;;;7.22;2.38;;;;;;;;;;5000365;28;95229;-65
2022/12/20 03:16:05;;;;;;;5.05;2.50;;;;;;;;;;4984586;28;92246;-65
2022/12/20 03:18:32;;;;;;;6.80;2.15;;;;;;;;;;4997981;28;94541;-65
2022/12/20 03:20:58;;;;;;;5.50;2.30;;;;;;;;;;4990846;28;93136;-65
2022/12/20 03:23:24;;;;;;;7.97;2.40;;;;;;;;;;5001940;28;92517;-65
2022/12/20 03:25:51;;;;;;;6.93;1.90;;;;;;;;;;5003022;28;94454;-65
2022/12/20 03:28:29;;;;;;;5.85;2.30;;;;;;;;;;5000229;28;92448;-65
2022/12/20 03:30:56;;;;;;;5.30;2.40;;;;;;;;;;5000022;28;93423;-66
2022/12/20 03:33:22;;;;;;;5.85;2.35;;;;;;;;;;5000107;28;92703;-65
2022/12/20 03:35:49;;;;;;;5.60;2.10;;;;;;;;;;5000465;28;91470;-66
2022/12/20 03:38:17;;;;;;;5.95;2.53;;;;;;;;;;5000778;28;93552;-65
2022/12/20 03:40:43;;;;;;;7.00;2.60;;;;;;;;;;4983111;28;93906;-65
2022/12/20 03:43:12;;;;;;;5.57;2.25;;;;;;;;;;4988985;28;95459;-65
2022/12/20 03:45:39;;;;;;;6.70;2.10;;;;;;;;;;4999513;28;94947;-66
2022/12/20 03:48:05;;;;;;;4.78;2.20;;;;;;;;;;4997695;28;92470;-65
2022/12/20 03:50:31;;;;;;;6.22;2.40;;;;;;;;;;4999777;28;92426;-66
2022/12/20 03:52:59;;;;;;;7.90;2.60;;;;;;;;;;5001318;28;93569;-65
2022/12/20 03:55:26;;;;;;;6.70;2.50;;;;;;;;;;5001051;28;92092;-65
2022/12/20 03:57:52;;;;;;;6.38;2.40;;;;;;;;;;5000826;28;92546;-66
2022/12/20 04:00:26;;;;;;;5.22;2.25;;;;;;;;;;4999909;28;93647;-66
2022/12/20 04:03:05;;;;;;;7.85;2.47;;;;;;;;;;4999026;28;92488;-65
2022/12/20 04:05:32;;;;;;;5.72;2.35;;;;;;;;;;4998874;28;92352;-66
2022/12/20 04:07:59;;;;;;;4.93;2.00;;;;;;;;;;4998998;28;95904;-65
2022/12/20 04:10:26;;;;;;;4.78;1.83;;;;;;;;;;5003978;28;92243;-66
2022/12/20 04:12:52;;;;;;;4.35;2.00;;;;;;;;;;5000379;28;92689;-65
2022/12/20 04:15:19;;;;;;;5.90;2.05;;;;;;;;;;5002234;28;92092;-65
2022/12/20 04:17:46;;;;;;;7.65;2.42;;;;;;;;;;5003235;28;92330;-65
2022/12/20 04:20:19;;;;;;;6.25;2.33;;;;;;;;;;5003073;28;94463;-65
2022/12/20 04:23:09;;;;;;;5.07;2.25;;;;;;;;;;5002787;28;94234;-65
2022/12/20 04:25:36;;;;;;;7.72;2.30;;;;;;;;;;5003348;28;94396;-65
2022/12/20 04:28:05;;;;;;;7.28;2.60;;;;;;;;;;5003879;28;93405;-65
2022/12/20 04:30:31;;;;;;;5.25;2.10;;;;;;;;;;5002655;28;92238;-65
2022/12/20 04:32:58;;;;;;;4.75;1.92;;;;;;;;;;5004483;28;94859;-65
2022/12/20 04:35:25;;;;;;;5.88;2.00;;;;;;;;;;5002777;28;93071;-65
2022/12/20 04:37:51;;;;;;;5.63;2.08;;;;;;;;;;5003005;28;94298;-65
2022/12/20 04:40:18;;;;;;;7.68;2.30;;;;;;;;;;5003814;28;92572;-65
2022/12/20 04:42:47;;;;;;;5.93;1.95;;;;;;;;;;5002921;28;92401;-65
2022/12/20 04:45:15;;;;;;;5.88;2.10;;;;;;;;;;5002181;28;92580;-65
2022/12/20 04:47:41;;;;;;;6.88;2.53;;;;;;;;;;5002582;28;94397;-65
2022/12/20 04:50:09;;;;;;;6.10;2.20;;;;;;;;;;5002689;28;91514;-65
2022/12/20 04:55:23;;;;;;;6.68;2.35;;;;;;;;;;5002413;28;92090;-65
2022/12/20 04:57:50;;;;;;;6.53;2.00;;;;;;;;;;4996583;28;94485;-66
2022/12/20 05:00:17;;;;;;;7.97;2.15;;;;;;;;;;5001943;28;93627;-65
2022/12/20 05:02:50;;;;;;;4.57;2.00;;;;;;;;;;5002595;28;92072;-65
2022/12/20 05:05:19;;;;;;;6.78;2.20;;;;;;;;;;5001649;28;94277;-65
2022/12/20 05:07:50;;;;;;;6.00;2.15;;;;;;;;;;5002224;28;95418;-65
2022/12/20 05:10:17;;;;;;;6.55;2.13;;;;;;;;;;5001868;28;92581;-65
2022/12/20 05:12:43;;;;;;;6.22;2.20;;;;;;;;;;5002216;28;92444;-65
2022/12/20 05:15:18;;;;;;;5.60;2.20;;;;;;;;;;5005340;28;94229;-65
2022/12/20 05:17:44;;;;;;;5.78;2.22;;;;;;;;;;5002546;28;92438;-65
2022/12/20 05:20:11;;;;;;;5.78;2.40;;;;;;;;;;5001600;28;92663;-65
2022/12/20 05:28:12;;;;;;;6.82;2.20;;;;;;;;;;5002031;28;94945;-65
2022/12/20 05:30:38;;;;;;;6.72;2.28;;;;;;;;;;5001748;28;92230;-65
2022/12/20 05:33:05;;;;;;;5.18;2.20;;;;;;;;;;4985766;28;94541;-65
2022/12/20 05:35:32;;;;;;;8.07;2.65;;;;;;;;;;5000741;28;93613;-65
2022/12/20 05:38:04;;;;;;;6.22;2.78;;;;;;;;;;4989390;28;92271;-65
2022/12/20 05:40:30;;;;;;;6.93;2.35;;;;;;;;;;5001194;28;94050;-65
2022/12/20 05:42:57;;;;;;;4.88;2.38;;;;;;;;;;5001851;28;92477;-66
2022/12/20 05:45:33;;;;;;;6.00;2.20;;;;;;;;;;5001190;28;93006;-65
2022/12/20 05:48:03;;;;;;;7.78;2.15;;;;;;;;;;5000105;28;95957;-65
2022/12/20 05:50:32;;;;;;;6.03;2.30;;;;;;;;;;5001391;28;92100;-65
2022/12/20 05:53:16;;;;;;;6.18;2.20;;;;;;;;;;5000282;28;92416;-65
2022/12/20 05:55:48;;;;;;;6.03;2.38;;;;;;;;;;5001461;28;92564;-65
2022/12/20 05:58:15;;;;;;;6.95;2.50;;;;;;;;;;5001885;28;92626;-65
2022/12/20 06:00:50;;;;;;;5.47;2.60;;;;;;;;;;5004363;28;93277;-65
2022/12/20 06:03:17;;;;;;;4.88;2.30;;;;;;;;;;5001816;28;92617;-65
2022/12/20 06:05:44;;;;;;;6.13;2.38;;;;;;;;;;5002828;28;92280;-65
2022/12/20 06:08:16;;;;;;;4.80;1.90;;;;;;;;;;5001202;28;92740;-65
2022/12/20 06:10:42;;;;;;;5.32;1.90;;;;;;;;;;5001130;28;92519;-65
2022/12/20 06:13:09;;;;;;;6.30;2.35;;;;;;;;;;5000105;28;95161;-66
2022/12/20 06:15:36;;;;;;;6.63;2.20;;;;;;;;;;5001094;28;92714;-65
2022/12/20 06:18:04;;;;;;;5.40;2.10;;;;;;;;;;5001300;28;92138;-65
2022/12/20 06:20:31;;;;;;;5.07;1.92;;;;;;;;;;5000815;28;94619;-65
2022/12/20 06:22:59;;;;;;;4.93;2.20;;;;;;;;;;5004087;28;92736;-65
2022/12/20 06:25:31;;;;;;;5.57;2.00;;;;;;;;;;5001038;28;93559;-66
2022/12/20 06:27:58;;;;;;;6.03;2.25;;;;;;;;;;5001082;28;92626;-65
2022/12/20 06:30:24;;;;;;;7.40;1.92;;;;;;;;;;5000950;28;91624;-65
2022/12/20 06:33:09;;;;;;;4.95;1.92;;;;;;;;;;5002726;28;92000;-65
2022/12/20 06:35:35;;;;;;;6.10;2.28;;;;;;;;;;5000601;28;92820;-65
2022/12/20 06:38:01;;;;;;;4.63;1.88;;;;;;;;;;4999392;28;94516;-65
2022/12/20 06:40:32;;;;;;;5.70;2.15;;;;;;;;;;5000572;28;96913;-65
2022/12/20 06:42:59;;;;;;;;;;;;;;;;;;5001788;28;94643;-65
2022/12/20 06:45:26;;;;;;;5.57;1.73;;;;;;;;;;5004629;28;92446;-65
2022/12/20 06:47:53;;;;;;;6.80;2.30;;;;;;;;;;5000854;28;92817;-65
2022/12/20 06:50:21;;;;;;;4.47;2.20;;;;;;;;;;4992487;28;92361;-65
2022/12/20 06:52:47;;;;;;;4.13;1.88;;;;;;;;;;4999042;28;93550;-65
2022/12/20 06:55:14;;;;;;;5.10;2.00;;;;;;;;;;5002419;28;92188;-66
2022/12/20 06:57:40;;;;;;;6.15;2.13;;;;;;;;;;5000744;28;92351;-65
2022/12/20 07:00:09;;;;;;;6.20;2.35;;;;;;;;;;5000626;28;92516;-64
2022/12/20 07:02:35;;;;;;;6.07;2.00;;;;;;;;;;5000370;28;95078;-65
2022/12/20 07:05:02;;;;;;;5.43;2.00;;;;;;;;;;5004192;28;92570;-65
2022/12/20 07:07:28;;;;;;;5.53;1.95;;;;;;;;;;5001808;28;92734;-65
2022/12/20 07:09:55;;;;;;;5.13;2.10;;;;;;;;;;5001545;28;92706;-65
2022/12/20 07:12:21;;;;;;;6.53;2.17;;;;;;;;;;5001806;28;92359;-65
2022/12/20 07:14:48;;;;;;;4.18;2.00;;;;;;;;;;5001417;28;92883;-65
2022/12/20 07:17:14;;;;;;;5.40;2.13;;;;;;;;;;5001961;28;92420;-65
2022/12/20 07:19:41;;;;;;;3.97;1.52;;;;;;;;;;4999606;28;91831;-63
2022/12/20 07:22:16;;;;;;;4.28;1.67;;;;;;;;;;5001820;28;92723;-64
2022/12/20 07:24:42;;;;;;;5.65;1.85;;;;;;;;;;5001880;28;92335;-64
2022/12/20 07:27:09;;;;;;;3.80;1.80;;;;;;;;;;5002997;28;94718;-64
2022/12/20 07:29:39;;;;;;;5.00;1.58;;;;;;;;;;5001606;28;92110;-64
2022/12/20 07:32:05;;;;;;;5.47;1.70;;;;;;;;;;4998892;28;93079;-64
2022/12/20 07:34:31;;;;;;;5.25;2.00;;;;;;;;;;5001193;28;92716;-64
2022/12/20 07:36:58;;;;;;;4.38;1.80;;;;;;;;;;5001077;28;92083;-64
2022/12/20 07:39:24;;;;;;;4.47;1.70;;;;;;;;;;4996995;28;93610;-64
2022/12/20 07:41:54;;;;;;;3.78;1.60;;;;;;;;;;4994976;28;93696;-64
2022/12/20 07:44:21;;;;;;;3.40;1.33;;;;;;;;;;4994753;28;92033;-64
2022/12/20 07:46:48;;;;;;;4.03;1.70;;;;;;;;;;4997896;28;92348;-64
2022/12/20 07:49:14;;;;;;;5.35;1.60;;;;;;;;;;5003325;28;92679;-64
2022/12/20 07:51:42;;;;;;;3.00;1.30;;;;;;;;;;4998332;28;95270;-64
2022/12/20 07:54:11;;;;;;;3.50;1.42;;;;;;;;;;5000412;28;92630;-64
2022/12/20 07:56:39;;;;;;;3.10;1.30;;;;;;;;;;5001829;28;92080;-64
2022/12/20 07:59:08;;;;;;;3.80;1.35;;;;;;;;;;5001417;28;92125;-64
2022/12/20 08:01:34;;;;;;;2.97;1.50;;;;;;;;;;5003277;28;92775;-63
2022/12/20 08:04:07;;;;;;;3.63;1.40;;;;;;;;;;5004789;28;92588;-64
2022/12/20 08:06:35;;;;;;;3.92;1.30;;;;;;;;;;5004063;28;92392;-63
2022/12/20 08:09:04;;;;;;;2.67;1.15;;;;;;;;;;5004475;28;91371;-64
2022/12/20 08:11:31;;;;;;;4.15;1.35;;;;;;;;;;5006592;28;92732;-64
2022/12/20 08:13:57;;;;;;;3.63;1.63;;;;;;;;;;5002249;28;92792;-63
2022/12/20 08:16:24;;;;;;;3.50;1.30;;;;;;;;;;4991015;28;94683;-64
2022/12/20 08:18:51;;;;;;;2.92;1.30;;;;;;;;;;5003716;28;95129;-64
2022/12/20 08:21:17;;;;;;;3.63;1.27;;;;;;;;;;5004056;28;92930;-60
2022/12/20 08:23:44;;;;;;;4.10;1.40;;;;;;;;;;5003294;28;92377;-65
2022/12/20 08:26:10;;;;;;;3.83;1.25;;;;;;;;;;5003706;28;93235;-60
2022/12/20 08:28:37;;;;;;;2.90;1.33;;;;;;;;;;5002089;28;94171;-60
2022/12/20 08:31:04;;;;;;;2.55;1.10;;;;;;;;;;5003451;28;92370;-60
2022/12/20 08:33:34;;;;;;;3.53;1.33;;;;;;;;;;5006734;28;92436;-60
2022/12/20 08:36:01;;;;;;;2.47;1.20;;;;;;;;;;4989640;28;92076;-60
2022/12/20 08:38:29;;;;;;;3.55;1.20;;;;;;;;;;5003450;28;92333;-60
2022/12/20 08:40:56;;;;;;;;;;;;;;;;;;5001554;28;95876;-59
2022/12/20 08:43:22;;;;;;;2.90;1.20;;;;;;;;;;5003679;28;116193;-59
2022/12/20 08:45:53;;;;;;;2.83;1.10;;;;;;;;;;5003228;28;92551;-60
2022/12/20 08:48:20;;;;;;;3.42;1.30;;;;;;;;;;5003134;28;92292;-59
2022/12/20 08:50:46;;;;;;;2.97;1.20;;;;;;;;;;5000932;28;93457;-60
2022/12/20 08:53:13;;;;;;;2.38;1.15;;;;;;;;;;4992955;28;92341;-60
2022/12/20 08:55:39;;;;;;;2.35;1.10;;;;;;;;;;5003561;28;92369;-60
2022/12/20 08:58:05;;;;;;;2.00;1.10;;;;;;;;;;4999614;28;92212;-60
2022/12/20 09:00:32;;;;;;;2.65;1.10;;;;;;;;;;5001044;28;93907;-60
2022/12/20 09:02:59;;;;;;;3.33;1.10;;;;;;;;;;5002792;28;92398;-60
2022/12/20 09:05:26;;;;;;;2.17;1.10;;;;;;;;;;5000973;28;94687;-60
2022/12/20 09:07:52;;;;;;;2.03;1.10;;;;;;;;;;5003508;28;92834;-61
2022/12/20 09:10:19;;;;;;;3.33;1.10;;;;;;;;;;5002746;28;92426;-60
2022/12/20 09:12:45;;;;;;;2.10;1.00;;;;;;;;;;5003465;28;92668;-60
2022/12/20 09:15:11;;;;;;;2.78;1.20;;;;;;;;;;5005744;28;92673;-60
2022/12/20 09:17:38;;;;;;;1.92;1.30;;;;;;;;;;5003441;28;93366;-61
2022/12/20 09:20:04;;;;;;;2.83;1.10;;;;;;;;;;5002122;28;93857;-60
2022/12/20 09:22:31;;;;;;;3.15;1.10;;;;;;;;;;5003657;28;91434;-61
2022/12/20 09:24:57;;;;;;;2.17;1.05;;;;;;;;;;5001204;28;92156;-61
2022/12/20 09:27:24;;;;;;;2.47;1.33;;;;;;;;;;5002938;28;92655;-60
2022/12/20 09:29:50;;;;;;;3.33;1.20;;;;;;;;;;5000737;28;94524;-60
2022/12/20 09:32:16;;;;;;;2.33;1.10;;;;;;;;;;5001845;28;94716;-60
2022/12/20 09:34:43;;;;;;;1.85;1.10;;;;;;;;;;5001765;28;93008;-60
2022/12/20 09:37:09;;;;;;;2.83;1.17;;;;;;;;;;5005944;28;92211;-59
2022/12/20 09:39:36;;;;;;;2.08;1.08;;;;;;;;;;5002159;28;92617;-59
2022/12/20 09:42:06;;;;;;;2.15;1.05;;;;;;;;;;4999026;28;92070;-60
2022/12/20 09:44:34;;;;;;;3.92;1.20;;;;;;;;;;5001081;28;92216;-59
2022/12/20 09:47:06;;;;;;;2.97;1.08;;;;;;;;;;5002092;28;91999;-58
2022/12/20 09:49:38;;;;;;;1.52;0.90;;;;;;;;;;5002175;28;92439;-62
2022/12/20 09:52:23;;;;;;;5.63;1.20;;;;;;;;;;5001679;28;92576;-61
2022/12/20 09:55:01;;;;;;;4.20;1.10;;;;;;;;;;4999898;28;95063;-59
2022/12/20 09:57:37;;;;;;;4.28;1.10;;;;;;;;;;5001625;28;92206;-60
2022/12/20 10:00:10;;;;;;;2.22;1.17;;;;;;;;;;5004222;28;92874;-60
2022/12/20 10:02:37;;;;;;;3.22;1.10;;;;;;;;;;5002437;28;93365;-60
2022/12/20 10:05:29;;;;;;;3.00;1.10;;;;;;;;;;5001001;28;92941;-60
2022/12/20 10:08:36;;;;;;;2.65;1.10;;;;;;;;;;5000293;28;93277;-60
2022/12/20 10:11:08;;;;;;;1.95;1.00;;;;;;;;;;4988878;28;92186;-59
2022/12/20 10:13:42;;;;;;;2.17;1.00;;;;;;;;;;5001899;28;92343;-59
2022/12/20 10:16:16;;;;;;;2.58;1.10;;;;;;;;;;4998844;28;93483;-60
2022/12/20 10:18:42;;;;;;;;;;;;;;;;;;5002590;28;92280;-60
2022/12/20 10:21:17;;;;;;;1.65;1.10;;;;;;;;;;4997923;28;118500;-59
2022/12/20 10:23:43;;;;;;;1.73;1.00;;;;;;;;;;5004299;28;93574;-60
2022/12/20 10:26:11;;;;;;;1.90;1.20;;;;;;;;;;5001725;28;92493;-60
2022/12/20 10:28:38;;;;;;;6.25;1.10;;;;;;;;;;5001052;28;93285;-60
2022/12/20 10:31:06;;;;;;;2.55;1.10;;;;;;;;;;5001923;28;92183;-60
2022/12/20 10:33:33;;;;;;;2.50;1.13;;;;;;;;;;5001426;28;92523;-60
2022/12/20 10:36:18;;;;;;;2.60;1.20;;;;;;;;;;5001429;28;93224;-60
2022/12/20 10:38:46;;;;;;;4.93;1.40;;;;;;;;;;5001689;28;91290;-60
2022/12/20 10:41:18;;;;;;;4.38;1.40;;;;;;;;;;5000188;28;92345;-60
2022/12/20 10:43:53;;;;;;;4.85;1.30;;;;;;;;;;5000458;28;92501;-60
2022/12/20 10:46:19;;;;;;;3.47;1.52;;;;;;;;;;5002759;28;94729;-60
2022/12/20 10:48:47;;;;;;;3.42;1.50;;;;;;;;;;5000738;28;92568;-60
2022/12/20 10:51:17;;;;;;;4.80;1.40;;;;;;;;;;5000835;28;92204;-60
2022/12/20 10:53:52;;;;;;;2.75;1.33;;;;;;;;;;5000807;28;93298;-60
2022/12/20 10:56:26;;;;;;;2.30;1.20;;;;;;;;;;5000171;28;92922;-60
2022/12/20 10:58:54;;;;;;;2.08;1.30;;;;;;;;;;5000760;28;92310;-60
2022/12/20 11:01:21;;;;;;;3.80;1.30;;;;;;;;;;5000031;28;92790;-60
2022/12/20 11:03:48;;;;;;;;;;;;;;;;;;4999254;28;91718;-60
2022/12/20 11:06:16;;;;;;;3.25;1.20;;;;;;;;;;5004327;28;92191;-60
2022/12/20 11:08:42;;;;;;;3.20;1.20;;;;;;;;;;4996814;28;92984;-60
2022/12/20 11:11:23;;;;;;;4.72;1.50;;;;;;;;;;4993498;28;94595;-60
2022/12/20 11:13:50;;;;;;;3.40;1.30;;;;;;;;;;5000351;28;94960;-60
2022/12/20 11:16:21;;;;;;;2.10;1.20;;;;;;;;;;5000323;28;92787;-60
2022/12/20 11:19:01;;;;;;;3.53;1.20;;;;;;;;;;5000508;28;92092;-59
2022/12/20 11:21:34;;;;;;;2.25;1.20;;;;;;;;;;5000553;28;92322;-59
2022/12/20 11:24:15;;;;;;;3.17;1.20;;;;;;;;;;4999333;28;92614;-59
2022/12/20 11:27:02;;;;;;;3.50;1.13;;;;;;;;;;5000999;28;92568;-60
2022/12/20 11:29:47;;;;;;;2.40;1.20;;;;;;;;;;5004290;28;92313;-63
2022/12/20 11:32:13;;;;;;;2.65;1.35;;;;;;;;;;4999673;28;92532;-60
2022/12/20 11:34:49;;;;;;;2.63;1.20;;;;;;;;;;5000506;28;92192;-60
2022/12/20 11:37:21;;;;;;;2.60;1.20;;;;;;;;;;4999146;28;95257;-60
2022/12/20 11:40:06;;;;;;;3.95;1.30;;;;;;;;;;5000763;28;92063;-60
2022/12/20 11:42:33;;;;;;;3.22;1.20;;;;;;;;;;5000078;28;93505;-60
2022/12/20 11:45:07;;;;;;;2.70;1.10;;;;;;;;;;4999756;28;92573;-60
2022/12/20 11:47:55;;;;;;;3.13;1.10;;;;;;;;;;5001051;28;92350;-60
2022/12/20 11:50:35;;;;;;;3.20;1.50;;;;;;;;;;5000026;28;94472;-60
2022/12/20 11:53:09;;;;;;;2.75;1.25;;;;;;;;;;5003667;28;92273;-60
2022/12/20 11:55:38;;;;;;;2.60;1.20;;;;;;;;;;4998635;28;92417;-60
2022/12/20 11:58:08;;;;;;;2.13;1.10;;;;;;;;;;5000403;28;92773;-60
2022/12/20 12:00:48;;;;;;;2.40;1.13;;;;;;;;;;4996697;28;92219;-60
2022/12/20 12:03:22;;;;;;;4.18;1.20;;;;;;;;;;4996794;28;94916;-59
2022/12/20 12:05:54;;;;;;;3.35;1.20;;;;;;;;;;4999677;28;93599;-60
2022/12/20 12:08:27;;;;;;;2.55;1.10;;;;;;;;;;5000224;28;92359;-60
2022/12/20 12:11:07;;;;;;;3.88;1.20;;;;;;;;;;4997965;28;92800;-60
2022/12/20 12:13:54;;;;;;;2.92;1.15;;;;;;;;;;4997083;28;92552;-59
2022/12/20 12:16:24;;;;;;;1.70;1.10;;;;;;;;;;5003312;28;91986;-59
2022/12/20 12:18:51;;;;;;;1.52;1.20;;;;;;;;;;5000127;28;92734;-59
2022/12/20 12:21:25;;;;;;;4.40;1.17;;;;;;;;;;5000724;28;91386;-58
2022/12/20 12:23:59;;;;;;;3.92;1.13;;;;;;;;;;4999401;28;92260;-60
2022/12/20 12:26:27;;;;;;;2.40;1.20;;;;;;;;;;4999688;28;92596;-58
2022/12/20 12:28:57;;;;;;;2.13;1.15;;;;;;;;;;4996172;28;95059;-59
2022/12/20 12:31:41;;;;;;;3.97;1.10;;;;;;;;;;4999463;28;95838;-59
2022/12/20 12:34:20;;;;;;;2.42;1.23;;;;;;;;;;5000465;28;92692;-59
2022/12/20 12:37:02;;;;;;;4.32;1.30;;;;;;;;;;5002989;28;92266;-59
2022/12/20 12:39:52;;;;;;;3.53;1.20;;;;;;;;;;5004433;28;92601;-59
2022/12/20 12:42:37;;;;;;;2.20;1.20;;;;;;;;;;4998015;28;92808;-60
2022/12/20 12:45:22;;;;;;;2.45;1.15;;;;;;;;;;5000561;28;92189;-60
2022/12/20 12:47:52;;;;;;;2.53;1.15;;;;;;;;;;5002050;28;92191;-58
2022/12/20 12:50:28;;;;;;;2.33;1.10;;;;;;;;;;5002432;28;92631;-59
2022/12/20 12:52:56;;;;;;;7.40;1.17;;;;;;;;;;5003417;28;92605;-60
2022/12/20 12:55:38;;;;;;;2.25;1.17;;;;;;;;;;5000868;28;95376;-60
2022/12/20 12:58:13;;;;;;;2.90;1.02;;;;;;;;;;5003325;28;92180;-60
2022/12/20 13:00:47;;;;;;;3.30;1.20;;;;;;;;;;5002842;28;92452;-60
2022/12/20 13:03:15;;;;;;;3.33;1.10;;;;;;;;;;5005765;28;92701;-60
2022/12/20 13:05:42;;;;;;;3.22;1.10;;;;;;;;;;4993517;28;92126;-61
2022/12/20 13:08:15;;;;;;;6.28;1.73;;;;;;;;;;5002678;28;92670;-60
2022/12/20 13:10:42;;;;;;;;;;;;;;;;;;4997475;28;91999;-60
2022/12/20 13:13:12;;;;;;;3.17;1.00;;;;;;;;;;5004492;28;122540;-60
2022/12/20 13:15:41;;;;;;;2.47;1.27;;;;;;;;;;5002766;28;92816;-60
2022/12/20 13:18:08;;;;;;;3.65;1.10;;;;;;;;;;5003103;28;92022;-59
2022/12/20 13:20:35;;;;;;;2.08;1.10;;;;;;;;;;5001289;28;94726;-60
2022/12/20 13:23:22;;;;;;;4.45;1.17;;;;;;;;;;5004908;28;93003;-60
2022/12/20 13:25:52;;;;;;;4.57;1.23;;;;;;;;;;4990872;28;94155;-60
2022/12/20 13:28:21;;;;;;;3.72;1.10;;;;;;;;;;5003347;28;92635;-60
2022/12/20 13:31:00;;;;;;;2.42;1.15;;;;;;;;;;5002406;28;92377;-60
2022/12/20 13:33:47;;;;;;;2.38;1.10;;;;;;;;;;5002604;28;92388;-60
2022/12/20 13:36:16;;;;;;;2.67;1.30;;;;;;;;;;5001950;28;94755;-59
2022/12/20 13:38:45;;;;;;;3.15;1.30;;;;;;;;;;4992140;28;91747;-59
2022/12/20 13:41:29;;;;;;;4.95;2.20;;;;;;;;;;4999507;28;92187;-60
2022/12/20 13:44:18;;;;;;;5.30;2.60;;;;;;;;;;5000700;28;93375;-63
2022/12/20 13:46:45;;;;;;;5.45;2.30;;;;;;;;;;5001196;28;94823;-62
2022/12/20 13:49:12;;;;;;;;;;;;;;;;;;5002060;28;92111;-63
2022/12/20 13:51:38;;;;;;;6.57;2.88;;;;;;;;;;5002614;28;92096;-63
2022/12/20 13:54:06;;;;;;;5.65;2.80;;;;;;;;;;5000740;28;92262;-62
2022/12/20 13:56:41;;;;;;;6.25;3.03;;;;;;;;;;5000795;28;92650;-62
2022/12/20 13:59:19;;;;;;;5.30;2.70;;;;;;;;;;5001529;28;92005;-61
2022/12/20 14:02:09;;;;;;;7.15;2.90;;;;;;;;;;5000889;28;92232;-61
2022/12/20 14:04:41;;;;;;;6.47;2.70;;;;;;;;;;5002244;28;92364;-62
2022/12/20 14:07:09;;;;;;;5.90;2.95;;;;;;;;;;4997959;28;92526;-62
2022/12/20 14:09:36;;;;;;;5.85;3.10;;;;;;;;;;5003627;28;92452;-61
2022/12/20 14:12:10;;;;;;;6.63;3.20;;;;;;;;;;4999922;28;95020;-61
2022/12/20 14:14:37;;;;;;;6.88;2.90;;;;;;;;;;5002058;28;94207;-61
2022/12/20 14:17:13;;;;;;;7.00;3.13;;;;;;;;;;5001612;28;93665;-61
2022/12/20 14:19:41;;;;;;;7.78;3.90;;;;;;;;;;5000404;28;92547;-63
2022/12/20 14:22:10;;;;;;;5.85;2.75;;;;;;;;;;5001189;28;91945;-61
2022/12/20 14:24:38;;;;;;;7.78;3.47;;;;;;;;;;5001667;28;92634;-61
2022/12/20 14:27:05;;;;;;;7.13;3.30;;;;;;;;;;5001820;28;92504;-65
2022/12/20 14:29:31;;;;;;;7.07;3.40;;;;;;;;;;5001954;28;92174;-62
2022/12/20 14:31:58;;;;;;;6.55;2.80;;;;;;;;;;5004165;28;92638;-64
2022/12/20 14:34:29;;;;;;;7.55;3.58;;;;;;;;;;5000659;28;92316;-61
2022/12/20 14:37:19;;;;;;;7.45;3.30;;;;;;;;;;4999327;28;95879;-62
2022/12/20 14:39:57;;;;;;;7.00;3.70;;;;;;;;;;5001942;28;92536;-61
2022/12/20 14:42:33;;;;;;;7.80;3.83;;;;;;;;;;4998791;28;92558;-61
2022/12/20 14:45:15;;;;;;;8.15;3.50;;;;;;;;;;5000362;28;92582;-62
2022/12/20 14:47:48;;;;;;;8.73;4.38;;;;;;;;;;4999854;28;91975;-63
2022/12/20 14:50:19;;;;;;;6.65;3.35;;;;;;;;;;4999556;28;92137;-63
2022/12/20 14:52:46;;;;;;;7.90;4.00;;;;;;;;;;4999830;28;92484;-64
2022/12/20 14:55:21;;;;;;;8.45;3.67;;;;;;;;;;5004672;28;91363;-65
2022/12/20 14:57:52;;;;;;;6.78;3.40;;;;;;;;;;4994723;28;92540;-62
2022/12/20 15:00:28;;;;;;;6.60;3.38;;;;;;;;;;5000947;28;92366;-63
2022/12/20 15:02:55;;;;;;;8.13;4.30;;;;;;;;;;4999152;28;94820;-63
2022/12/20 15:05:31;;;;;;;7.40;3.70;;;;;;;;;;5000851;28;92933;-61
2022/12/20 15:08:18;;;;;;;8.82;4.50;;;;;;;;;;5002374;28;92422;-61
2022/12/20 15:10:47;;;;;;;7.40;2.63;;;;;;;;;;4997207;28;92445;-59
2022/12/20 15:13:15;;;;;;;6.30;2.67;;;;;;;;;;5000911;28;92878;-62
2022/12/20 15:15:41;;;;;;;;;;;;;;;;;;5001201;28;92508;-61